sensor_id;sensor_type;location;lat;lon;timestamp;pressure;altitude;pressure_sealevel;temperature;humidity
69153;BME280;56261;51.580;4.578;2023-02-22T00:00:17;101684.84;;;5.56;100.00
69153;BME280;56261;51.580;4.578;2023-02-22T00:02:47;101677.75;;;5.45;100.00
69153;BME280;56261;51.580;4.578;2023-02-22T00:05:13;101689.28;;;5.44;100.00
69153;BME280;56261;51.580;4.578;2023-02-22T00:07:42;101692.06;;;5.43;100.00
69153;BME280;56261;51.580;4.578;2023-02-22T00:10:09;101684.31;;;5.39;100.00
69153;BME280;56261;51.580;4.578;2023-02-22T00:12:41;101692.66;;;5.46;100.00
69153;BME280;56261;51.580;4.578;2023-02-22T00:15:08;101690.97;;;5.45;100.00
69153;BME280;56261;51.580;4.578;2023-02-22T00:17:34;101682.22;;;5.20;100.00
69153;BME280;56261;51.580;4.578;2023-02-22T00:19:59;101684.25;;;5.17;100.00
69153;BME280;56261;51.580;4.578;2023-02-22T00:22:25;101689.63;;;5.15;100.00
69153;BME280;56261;51.580;4.578;2023-02-22T00:24:50;101692.53;;;5.12;100.00
69153;BME280;56261;51.580;4.578;2023-02-22T00:27:15;101686.25;;;5.13;100.00
69153;BME280;56261;51.580;4.578;2023-02-22T00:29:45;101684.69;;;5.11;100.00
69153;BME280;56261;51.580;4.578;2023-02-22T00:32:11;101696.22;;;5.10;100.00
69153;BME280;56261;51.580;4.578;2023-02-22T00:34:36;101688.31;;;5.10;100.00
69153;BME280;56261;51.580;4.578;2023-02-22T00:37:02;101690.38;;;5.17;100.00
69153;BME280;56261;51.580;4.578;2023-02-22T00:39:29;101689.78;;;5.14;100.00
69153;BME280;56261;51.580;4.578;2023-02-22T00:41:55;101681.09;;;5.12;100.00
69153;BME280;56261;51.580;4.578;2023-02-22T00:44:20;101679.06;;;5.15;100.00
69153;BME280;56261;51.580;4.578;2023-02-22T00:46:46;101687.72;;;5.17;100.00
69153;BME280;56261;51.580;4.578;2023-02-22T00:49:11;101680.66;;;5.18;100.00
69153;BME280;56261;51.580;4.578;2023-02-22T00:51:37;101676.75;;;5.11;100.00
69153;BME280;56261;51.580;4.578;2023-02-22T00:54:02;101676.66;;;5.12;100.00
69153;BME280;56261;51.580;4.578;2023-02-22T00:56:32;101669.00;;;5.20;100.00
69153;BME280;56261;51.580;4.578;2023-02-22T00:58:58;101675.13;;;5.21;100.00
69153;BME280;56261;51.580;4.578;2023-02-22T01:01:25;101666.56;;;5.17;100.00
69153;BME280;56261;51.580;4.578;2023-02-22T01:03:51;101671.66;;;5.20;100.00
69153;BME280;56261;51.580;4.578;2023-02-22T01:06:16;101663.75;;;5.32;100.00
69153;BME280;56261;51.580;4.578;2023-02-22T01:08:43;101658.91;;;5.26;100.00
69153;BME280;56261;51.580;4.578;2023-02-22T01:11:09;101665.66;;;5.30;100.00
69153;BME280;56261;51.580;4.578;2023-02-22T01:13:35;101654.34;;;5.28;100.00
69153;BME280;56261;51.580;4.578;2023-02-22T01:16:00;101650.84;;;5.16;100.00
69153;BME280;56261;51.580;4.578;2023-02-22T01:18:27;101648.69;;;5.21;100.00
69153;BME280;56261;51.580;4.578;2023-02-22T01:20:52;101639.69;;;5.24;100.00
69153;BME280;56261;51.580;4.578;2023-02-22T01:23:18;101643.50;;;5.19;100.00
69153;BME280;56261;51.580;4.578;2023-02-22T01:25:44;101640.88;;;5.31;100.00
69153;BME280;56261;51.580;4.578;2023-02-22T01:28:09;101634.16;;;5.38;100.00
69153;BME280;56261;51.580;4.578;2023-02-22T01:30:35;101637.91;;;5.35;100.00
69153;BME280;56261;51.580;4.578;2023-02-22T01:33:03;101634.06;;;5.39;100.00
69153;BME280;56261;51.580;4.578;2023-02-22T01:35:31;101633.47;;;5.36;100.00
69153;BME280;56261;51.580;4.578;2023-02-22T01:37:57;101629.22;;;5.33;100.00
69153;BME280;56261;51.580;4.578;2023-02-22T01:40:28;101631.03;;;5.33;100.00
69153;BME280;56261;51.580;4.578;2023-02-22T01:42:56;101627.44;;;5.23;100.00
69153;BME280;56261;51.580;4.578;2023-02-22T01:50:43;101611.84;;;5.07;100.00
69153;BME280;56261;51.580;4.578;2023-02-22T01:53:11;101608.41;;;5.17;100.00
69153;BME280;56261;51.580;4.578;2023-02-22T01:55:39;101606.25;;;5.11;100.00
69153;BME280;56261;51.580;4.578;2023-02-22T01:58:05;101607.66;;;5.15;100.00
69153;BME280;56261;51.580;4.578;2023-02-22T02:00:31;101614.38;;;5.08;100.00
69153;BME280;56261;51.580;4.578;2023-02-22T02:03:04;101609.81;;;5.10;100.00
69153;BME280;56261;51.580;4.578;2023-02-22T02:05:31;101615.34;;;5.07;100.00
69153;BME280;56261;51.580;4.578;2023-02-22T02:08:02;101605.72;;;5.06;100.00
69153;BME280;56261;51.580;4.578;2023-02-22T02:10:30;101602.97;;;5.08;100.00
69153;BME280;56261;51.580;4.578;2023-02-22T02:12:57;101587.72;;;5.11;100.00
69153;BME280;56261;51.580;4.578;2023-02-22T02:15:31;101595.91;;;5.19;100.00
69153;BME280;56261;51.580;4.578;2023-02-22T02:18:05;101594.44;;;5.15;100.00
69153;BME280;56261;51.580;4.578;2023-02-22T02:26:08;101587.25;;;5.17;100.00
69153;BME280;56261;51.580;4.578;2023-02-22T02:29:23;101577.75;;;5.15;100.00
69153;BME280;56261;51.580;4.578;2023-02-22T02:37:46;101572.53;;;5.02;100.00
69153;BME280;56261;51.580;4.578;2023-02-22T02:43:04;101567.59;;;4.97;100.00
69153;BME280;56261;51.580;4.578;2023-02-22T02:45:44;101549.56;;;4.91;100.00
69153;BME280;56261;51.580;4.578;2023-02-22T02:48:11;101547.91;;;5.02;100.00
69153;BME280;56261;51.580;4.578;2023-02-22T02:50:45;101541.06;;;4.99;100.00
69153;BME280;56261;51.580;4.578;2023-02-22T02:53:14;101552.94;;;4.93;100.00
69153;BME280;56261;51.580;4.578;2023-02-22T02:55:42;101538.88;;;4.93;100.00
69153;BME280;56261;51.580;4.578;2023-02-22T02:58:08;101540.03;;;4.89;100.00
69153;BME280;56261;51.580;4.578;2023-02-22T03:00:38;101532.13;;;4.89;100.00
69153;BME280;56261;51.580;4.578;2023-02-22T03:11:10;101527.44;;;4.57;100.00
69153;BME280;56261;51.580;4.578;2023-02-22T03:14:05;101512.13;;;4.62;100.00
69153;BME280;56261;51.580;4.578;2023-02-22T03:16:48;101514.28;;;4.68;100.00
69153;BME280;56261;51.580;4.578;2023-02-22T03:19:37;101515.97;;;4.69;100.00
69153;BME280;56261;51.580;4.578;2023-02-22T03:24:48;101503.84;;;4.67;100.00
69153;BME280;56261;51.580;4.578;2023-02-22T03:29:49;101490.53;;;4.79;100.00
69153;BME280;56261;51.580;4.578;2023-02-22T03:32:20;101484.16;;;4.82;100.00
69153;BME280;56261;51.580;4.578;2023-02-22T03:34:57;101477.66;;;4.75;100.00
69153;BME280;56261;51.580;4.578;2023-02-22T03:37:31;101481.28;;;4.74;100.00
69153;BME280;56261;51.580;4.578;2023-02-22T03:39:59;101481.34;;;4.61;100.00
69153;BME280;56261;51.580;4.578;2023-02-22T03:42:29;101477.53;;;4.65;100.00
69153;BME280;56261;51.580;4.578;2023-02-22T03:44:57;101466.00;;;4.66;100.00
69153;BME280;56261;51.580;4.578;2023-02-22T03:47:35;101463.72;;;4.73;100.00
69153;BME280;56261;51.580;4.578;2023-02-22T03:50:08;101456.66;;;4.73;100.00
69153;BME280;56261;51.580;4.578;2023-02-22T03:52:35;101467.94;;;4.75;100.00
69153;BME280;56261;51.580;4.578;2023-02-22T03:55:02;101456.31;;;4.78;100.00
69153;BME280;56261;51.580;4.578;2023-02-22T03:57:32;101453.16;;;4.73;100.00
69153;BME280;56261;51.580;4.578;2023-02-22T03:59:59;101465.19;;;4.77;100.00
69153;BME280;56261;51.580;4.578;2023-02-22T04:02:25;101460.28;;;4.84;100.00
69153;BME280;56261;51.580;4.578;2023-02-22T04:04:50;101454.97;;;4.72;100.00
69153;BME280;56261;51.580;4.578;2023-02-22T04:07:16;101455.56;;;4.65;100.00
69153;BME280;56261;51.580;4.578;2023-02-22T04:09:42;101466.97;;;4.65;100.00
69153;BME280;56261;51.580;4.578;2023-02-22T04:12:08;101463.59;;;4.63;100.00
69153;BME280;56261;51.580;4.578;2023-02-22T04:14:33;101458.28;;;4.52;100.00
69153;BME280;56261;51.580;4.578;2023-02-22T04:16:59;101450.34;;;4.52;100.00
69153;BME280;56261;51.580;4.578;2023-02-22T04:19:24;101454.56;;;4.54;100.00
69153;BME280;56261;51.580;4.578;2023-02-22T04:21:50;101447.38;;;4.56;100.00
69153;BME280;56261;51.580;4.578;2023-02-22T04:24:15;101445.81;;;4.54;100.00
69153;BME280;56261;51.580;4.578;2023-02-22T04:26:41;101442.31;;;4.53;100.00
69153;BME280;56261;51.580;4.578;2023-02-22T04:29:06;101443.38;;;4.51;100.00
69153;BME280;56261;51.580;4.578;2023-02-22T04:31:32;101442.78;;;4.47;100.00
69153;BME280;56261;51.580;4.578;2023-02-22T04:33:58;101438.22;;;4.49;100.00
69153;BME280;56261;51.580;4.578;2023-02-22T04:36:24;101448.81;;;4.61;100.00
69153;BME280;56261;51.580;4.578;2023-02-22T04:38:51;101439.81;;;4.63;100.00
69153;BME280;56261;51.580;4.578;2023-02-22T04:41:17;101434.19;;;4.68;100.00
69153;BME280;56261;51.580;4.578;2023-02-22T04:43:43;101430.75;;;4.43;100.00
69153;BME280;56261;51.580;4.578;2023-02-22T04:46:08;101426.25;;;4.32;100.00
69153;BME280;56261;51.580;4.578;2023-02-22T04:48:34;101437.84;;;4.43;100.00
69153;BME280;56261;51.580;4.578;2023-02-22T04:50:59;101421.25;;;4.41;100.00
69153;BME280;56261;51.580;4.578;2023-02-22T04:53:25;101414.31;;;4.51;100.00
69153;BME280;56261;51.580;4.578;2023-02-22T04:55:50;101417.44;;;4.45;100.00
69153;BME280;56261;51.580;4.578;2023-02-22T04:58:16;101418.41;;;4.55;100.00
69153;BME280;56261;51.580;4.578;2023-02-22T05:00:42;101410.97;;;4.49;100.00
69153;BME280;56261;51.580;4.578;2023-02-22T05:03:07;101419.47;;;4.41;100.00
69153;BME280;56261;51.580;4.578;2023-02-22T05:05:33;101416.56;;;4.44;100.00
69153;BME280;56261;51.580;4.578;2023-02-22T05:07:59;101412.25;;;4.43;100.00
69153;BME280;56261;51.580;4.578;2023-02-22T05:10:24;101405.78;;;4.47;100.00
69153;BME280;56261;51.580;4.578;2023-02-22T05:12:51;101399.50;;;4.37;100.00
69153;BME280;56261;51.580;4.578;2023-02-22T05:15:18;101410.81;;;4.39;100.00
69153;BME280;56261;51.580;4.578;2023-02-22T05:17:45;101408.78;;;4.43;100.00
69153;BME280;56261;51.580;4.578;2023-02-22T05:20:25;101392.44;;;4.37;100.00
69153;BME280;56261;51.580;4.578;2023-02-22T05:22:54;101401.78;;;4.30;100.00
69153;BME280;56261;51.580;4.578;2023-02-22T05:25:19;101395.75;;;4.28;100.00
69153;BME280;56261;51.580;4.578;2023-02-22T05:27:56;101393.38;;;4.25;100.00
69153;BME280;56261;51.580;4.578;2023-02-22T05:30:26;101391.06;;;4.21;100.00
69153;BME280;56261;51.580;4.578;2023-02-22T05:32:52;101388.88;;;4.14;100.00
69153;BME280;56261;51.580;4.578;2023-02-22T05:35:18;101390.94;;;4.11;100.00
69153;BME280;56261;51.580;4.578;2023-02-22T05:37:44;101379.16;;;4.15;100.00
69153;BME280;56261;51.580;4.578;2023-02-22T05:40:11;101373.91;;;4.26;100.00
69153;BME280;56261;51.580;4.578;2023-02-22T05:42:36;101374.84;;;4.14;100.00
69153;BME280;56261;51.580;4.578;2023-02-22T05:45:02;101362.97;;;4.20;100.00
69153;BME280;56261;51.580;4.578;2023-02-22T05:47:28;101355.63;;;4.12;100.00
69153;BME280;56261;51.580;4.578;2023-02-22T05:49:53;101350.25;;;4.13;100.00
69153;BME280;56261;51.580;4.578;2023-02-22T05:52:20;101333.00;;;4.21;100.00
69153;BME280;56261;51.580;4.578;2023-02-22T05:54:45;101329.28;;;4.23;100.00
69153;BME280;56261;51.580;4.578;2023-02-22T05:57:10;101323.06;;;4.35;100.00
69153;BME280;56261;51.580;4.578;2023-02-22T05:59:36;101333.75;;;4.34;100.00
69153;BME280;56261;51.580;4.578;2023-02-22T06:02:01;101321.59;;;4.20;100.00
69153;BME280;56261;51.580;4.578;2023-02-22T06:04:26;101333.63;;;4.24;100.00
69153;BME280;56261;51.580;4.578;2023-02-22T06:06:52;101325.81;;;4.23;100.00
69153;BME280;56261;51.580;4.578;2023-02-22T06:09:17;101328.44;;;4.23;100.00
69153;BME280;56261;51.580;4.578;2023-02-22T06:11:43;101338.38;;;4.19;100.00
69153;BME280;56261;51.580;4.578;2023-02-22T06:14:08;101326.00;;;4.20;100.00
69153;BME280;56261;51.580;4.578;2023-02-22T06:16:34;101327.97;;;4.29;100.00
69153;BME280;56261;51.580;4.578;2023-02-22T06:18:59;101337.22;;;4.34;100.00
69153;BME280;56261;51.580;4.578;2023-02-22T06:21:25;101325.56;;;4.37;100.00
69153;BME280;56261;51.580;4.578;2023-02-22T06:23:51;101333.28;;;4.40;100.00
69153;BME280;56261;51.580;4.578;2023-02-22T06:26:17;101334.22;;;4.39;100.00
69153;BME280;56261;51.580;4.578;2023-02-22T06:28:42;101326.31;;;4.39;100.00
69153;BME280;56261;51.580;4.578;2023-02-22T06:31:08;101335.31;;;4.48;100.00
69153;BME280;56261;51.580;4.578;2023-02-22T06:33:33;101340.47;;;4.38;100.00
69153;BME280;56261;51.580;4.578;2023-02-22T06:35:58;101339.97;;;4.44;100.00
69153;BME280;56261;51.580;4.578;2023-02-22T06:38:24;101325.94;;;4.32;100.00
69153;BME280;56261;51.580;4.578;2023-02-22T06:40:51;101342.75;;;4.31;100.00
69153;BME280;56261;51.580;4.578;2023-02-22T06:43:17;101342.88;;;4.41;100.00
69153;BME280;56261;51.580;4.578;2023-02-22T06:45:43;101336.97;;;4.37;100.00
69153;BME280;56261;51.580;4.578;2023-02-22T06:48:08;101341.78;;;4.32;100.00
69153;BME280;56261;51.580;4.578;2023-02-22T06:50:33;101340.84;;;4.33;100.00
69153;BME280;56261;51.580;4.578;2023-02-22T06:52:59;101342.59;;;4.33;100.00
69153;BME280;56261;51.580;4.578;2023-02-22T06:55:29;101349.44;;;4.24;100.00
69153;BME280;56261;51.580;4.578;2023-02-22T06:57:54;101344.75;;;4.28;100.00
69153;BME280;56261;51.580;4.578;2023-02-22T07:00:22;101344.38;;;4.21;100.00
69153;BME280;56261;51.580;4.578;2023-02-22T07:02:49;101347.03;;;4.21;100.00
69153;BME280;56261;51.580;4.578;2023-02-22T07:05:16;101348.72;;;4.22;100.00
69153;BME280;56261;51.580;4.578;2023-02-22T07:07:43;101341.78;;;4.32;100.00
69153;BME280;56261;51.580;4.578;2023-02-22T07:10:18;101355.47;;;4.37;100.00
69153;BME280;56261;51.580;4.578;2023-02-22T07:12:43;101349.34;;;4.37;100.00
69153;BME280;56261;51.580;4.578;2023-02-22T07:15:09;101347.31;;;4.41;100.00
69153;BME280;56261;51.580;4.578;2023-02-22T07:17:34;101354.41;;;4.40;100.00
69153;BME280;56261;51.580;4.578;2023-02-22T07:20:00;101368.91;;;4.34;100.00
69153;BME280;56261;51.580;4.578;2023-02-22T07:22:25;101363.28;;;4.39;100.00
69153;BME280;56261;51.580;4.578;2023-02-22T07:24:50;101364.00;;;4.41;100.00
69153;BME280;56261;51.580;4.578;2023-02-22T07:27:16;101361.81;;;4.35;100.00
69153;BME280;56261;51.580;4.578;2023-02-22T07:29:42;101343.47;;;4.33;100.00
69153;BME280;56261;51.580;4.578;2023-02-22T07:32:08;101357.78;;;4.42;100.00
69153;BME280;56261;51.580;4.578;2023-02-22T07:34:34;101355.25;;;4.52;100.00
69153;BME280;56261;51.580;4.578;2023-02-22T07:36:59;101367.75;;;4.50;100.00
69153;BME280;56261;51.580;4.578;2023-02-22T07:39:24;101368.38;;;4.53;100.00
69153;BME280;56261;51.580;4.578;2023-02-22T07:41:51;101351.28;;;4.57;100.00
69153;BME280;56261;51.580;4.578;2023-02-22T07:44:16;101362.59;;;4.60;100.00
69153;BME280;56261;51.580;4.578;2023-02-22T07:46:46;101343.03;;;4.62;100.00
69153;BME280;56261;51.580;4.578;2023-02-22T07:49:13;101348.31;;;4.62;100.00
69153;BME280;56261;51.580;4.578;2023-02-22T07:51:39;101348.06;;;4.65;100.00
69153;BME280;56261;51.580;4.578;2023-02-22T07:54:04;101342.44;;;4.70;100.00
69153;BME280;56261;51.580;4.578;2023-02-22T07:56:29;101342.19;;;4.62;100.00
69153;BME280;56261;51.580;4.578;2023-02-22T07:58:55;101336.31;;;4.69;100.00
69153;BME280;56261;51.580;4.578;2023-02-22T08:01:20;101328.25;;;4.71;100.00
69153;BME280;56261;51.580;4.578;2023-02-22T08:03:46;101341.81;;;4.77;100.00
69153;BME280;56261;51.580;4.578;2023-02-22T08:06:11;101329.47;;;4.78;100.00
69153;BME280;56261;51.580;4.578;2023-02-22T08:08:37;101335.34;;;4.82;100.00
69153;BME280;56261;51.580;4.578;2023-02-22T08:11:03;101322.84;;;4.84;100.00
69153;BME280;56261;51.580;4.578;2023-02-22T08:13:29;101318.03;;;4.89;100.00
69153;BME280;56261;51.580;4.578;2023-02-22T08:15:55;101308.91;;;4.93;100.00
69153;BME280;56261;51.580;4.578;2023-02-22T08:18:21;101303.50;;;5.06;100.00
69153;BME280;56261;51.580;4.578;2023-02-22T08:20:49;101283.09;;;4.96;100.00
69153;BME280;56261;51.580;4.578;2023-02-22T08:23:16;101285.34;;;5.01;100.00
69153;BME280;56261;51.580;4.578;2023-02-22T08:25:42;101293.19;;;5.03;100.00
69153;BME280;56261;51.580;4.578;2023-02-22T08:28:12;101294.59;;;5.18;100.00
69153;BME280;56261;51.580;4.578;2023-02-22T08:30:39;101292.78;;;5.18;100.00
69153;BME280;56261;51.580;4.578;2023-02-22T08:33:07;101288.56;;;5.27;100.00
69153;BME280;56261;51.580;4.578;2023-02-22T08:35:33;101283.25;;;5.38;100.00
69153;BME280;56261;51.580;4.578;2023-02-22T08:38:01;101277.81;;;5.40;100.00
69153;BME280;56261;51.580;4.578;2023-02-22T08:40:30;101284.16;;;5.49;100.00
69153;BME280;56261;51.580;4.578;2023-02-22T08:42:56;101294.34;;;5.53;100.00
69153;BME280;56261;51.580;4.578;2023-02-22T08:45:22;101293.63;;;5.51;100.00
69153;BME280;56261;51.580;4.578;2023-02-22T08:47:47;101279.13;;;5.46;100.00
69153;BME280;56261;51.580;4.578;2023-02-22T08:50:19;101302.41;;;5.84;100.00
69153;BME280;56261;51.580;4.578;2023-02-22T08:52:45;101291.31;;;5.90;100.00
69153;BME280;56261;51.580;4.578;2023-02-22T08:55:11;101288.34;;;5.83;100.00
69153;BME280;56261;51.580;4.578;2023-02-22T08:57:36;101306.47;;;5.99;100.00
69153;BME280;56261;51.580;4.578;2023-02-22T09:00:04;101299.00;;;5.93;100.00
69153;BME280;56261;51.580;4.578;2023-02-22T09:02:29;101304.69;;;5.89;100.00
69153;BME280;56261;51.580;4.578;2023-02-22T09:04:55;101304.78;;;5.87;100.00
69153;BME280;56261;51.580;4.578;2023-02-22T09:07:20;101319.34;;;5.93;100.00
69153;BME280;56261;51.580;4.578;2023-02-22T09:09:46;101312.75;;;5.98;100.00
69153;BME280;56261;51.580;4.578;2023-02-22T09:12:11;101294.16;;;5.77;100.00
69153;BME280;56261;51.580;4.578;2023-02-22T09:14:37;101316.38;;;5.86;100.00
69153;BME280;56261;51.580;4.578;2023-02-22T09:17:02;101318.16;;;5.97;100.00
69153;BME280;56261;51.580;4.578;2023-02-22T09:19:28;101325.97;;;5.98;100.00
69153;BME280;56261;51.580;4.578;2023-02-22T09:21:55;101321.28;;;5.91;100.00
69153;BME280;56261;51.580;4.578;2023-02-22T09:24:21;101331.59;;;6.05;100.00
69153;BME280;56261;51.580;4.578;2023-02-22T09:26:47;101329.72;;;6.17;100.00
69153;BME280;56261;51.580;4.578;2023-02-22T09:29:17;101329.84;;;6.15;100.00
69153;BME280;56261;51.580;4.578;2023-02-22T09:31:47;101316.09;;;6.21;100.00
69153;BME280;56261;51.580;4.578;2023-02-22T09:34:12;101318.09;;;6.29;100.00
69153;BME280;56261;51.580;4.578;2023-02-22T09:36:42;101318.41;;;6.15;100.00
69153;BME280;56261;51.580;4.578;2023-02-22T09:39:08;101319.91;;;6.29;100.00
69153;BME280;56261;51.580;4.578;2023-02-22T09:46:56;101307.88;;;6.24;100.00
69153;BME280;56261;51.580;4.578;2023-02-22T09:49:43;101302.78;;;6.33;100.00
69153;BME280;56261;51.580;4.578;2023-02-22T09:52:25;101315.25;;;6.42;100.00
69153;BME280;56261;51.580;4.578;2023-02-22T09:55:22;101315.03;;;6.55;100.00
69153;BME280;56261;51.580;4.578;2023-02-22T09:57:58;101303.13;;;6.49;100.00
69153;BME280;56261;51.580;4.578;2023-02-22T10:00:30;101298.53;;;6.72;100.00
69153;BME280;56261;51.580;4.578;2023-02-22T10:03:24;101302.75;;;6.94;100.00
69153;BME280;56261;51.580;4.578;2023-02-22T10:06:12;101294.03;;;7.03;100.00
69153;BME280;56261;51.580;4.578;2023-02-22T10:08:39;101303.94;;;7.01;100.00
69153;BME280;56261;51.580;4.578;2023-02-22T10:11:29;101293.47;;;7.10;100.00
69153;BME280;56261;51.580;4.578;2023-02-22T10:16:49;101298.09;;;7.17;100.00
69153;BME280;56261;51.580;4.578;2023-02-22T10:19:38;101303.00;;;7.22;100.00
69153;BME280;56261;51.580;4.578;2023-02-22T10:25:00;101295.81;;;7.03;100.00
69153;BME280;56261;51.580;4.578;2023-02-22T10:27:39;101301.53;;;6.98;100.00
69153;BME280;56261;51.580;4.578;2023-02-22T10:30:22;101304.34;;;7.06;100.00
69153;BME280;56261;51.580;4.578;2023-02-22T10:33:03;101305.72;;;7.01;100.00
69153;BME280;56261;51.580;4.578;2023-02-22T10:35:35;101302.97;;;7.12;100.00
69153;BME280;56261;51.580;4.578;2023-02-22T10:38:15;101298.22;;;7.16;100.00
69153;BME280;56261;51.580;4.578;2023-02-22T10:41:01;101297.44;;;7.35;100.00
69153;BME280;56261;51.580;4.578;2023-02-22T10:43:27;101286.25;;;7.41;100.00
69153;BME280;56261;51.580;4.578;2023-02-22T10:45:59;101277.19;;;7.43;100.00
69153;BME280;56261;51.580;4.578;2023-02-22T10:48:28;101287.66;;;7.45;100.00
69153;BME280;56261;51.580;4.578;2023-02-22T10:51:00;101292.84;;;7.46;100.00
69153;BME280;56261;51.580;4.578;2023-02-22T10:53:28;101283.06;;;7.76;100.00
69153;BME280;56261;51.580;4.578;2023-02-22T10:56:23;101278.03;;;7.93;100.00
69153;BME280;56261;51.580;4.578;2023-02-22T11:01:35;101276.91;;;7.95;100.00
69153;BME280;56261;51.580;4.578;2023-02-22T11:04:10;101270.44;;;8.07;100.00
69153;BME280;56261;51.580;4.578;2023-02-22T11:06:37;101258.28;;;8.05;100.00
69153;BME280;56261;51.580;4.578;2023-02-22T11:09:20;101253.78;;;8.25;100.00
69153;BME280;56261;51.580;4.578;2023-02-22T11:11:50;101258.34;;;8.32;100.00
69153;BME280;56261;51.580;4.578;2023-02-22T11:14:31;101246.16;;;8.49;100.00
69153;BME280;56261;51.580;4.578;2023-02-22T11:16:58;101255.53;;;8.54;100.00
69153;BME280;56261;51.580;4.578;2023-02-22T11:19:26;101254.69;;;8.53;100.00
69153;BME280;56261;51.580;4.578;2023-02-22T11:21:56;101248.63;;;8.61;100.00
69153;BME280;56261;51.580;4.578;2023-02-22T11:24:24;101243.31;;;8.61;100.00
69153;BME280;56261;51.580;4.578;2023-02-22T11:26:57;101244.56;;;8.94;100.00
69153;BME280;56261;51.580;4.578;2023-02-22T11:29:25;101252.25;;;9.15;100.00
69153;BME280;56261;51.580;4.578;2023-02-22T11:31:52;101241.59;;;9.15;100.00
69153;BME280;56261;51.580;4.578;2023-02-22T11:34:34;101239.47;;;9.01;100.00
69153;BME280;56261;51.580;4.578;2023-02-22T11:42:29;101234.84;;;9.21;100.00
69153;BME280;56261;51.580;4.578;2023-02-22T11:45:19;101232.19;;;9.03;100.00
69153;BME280;56261;51.580;4.578;2023-02-22T11:48:05;101231.66;;;9.17;100.00
69153;BME280;56261;51.580;4.578;2023-02-22T11:50:57;101229.53;;;9.21;100.00
69153;BME280;56261;51.580;4.578;2023-02-22T11:56:24;101236.06;;;9.44;100.00
69153;BME280;56261;51.580;4.578;2023-02-22T12:18:01;101211.56;;;10.03;100.00
69153;BME280;56261;51.580;4.578;2023-02-22T12:20:54;101231.13;;;9.67;100.00
69153;BME280;56261;51.580;4.578;2023-02-22T12:23:32;101229.59;;;9.65;100.00
69153;BME280;56261;51.580;4.578;2023-02-22T12:26:03;101229.84;;;9.97;100.00
69153;BME280;56261;51.580;4.578;2023-02-22T12:28:34;101221.09;;;10.13;100.00
69153;BME280;56261;51.580;4.578;2023-02-22T12:31:09;101227.84;;;10.00;100.00
69153;BME280;56261;51.580;4.578;2023-02-22T12:34:28;101221.94;;;9.88;100.00
69153;BME280;56261;51.580;4.578;2023-02-22T12:36:40;101220.88;;;9.98;100.00
69153;BME280;56261;51.580;4.578;2023-02-22T12:39:32;101225.50;;;9.96;100.00
69153;BME280;56261;51.580;4.578;2023-02-22T12:42:04;101221.06;;;10.05;100.00
69153;BME280;56261;51.580;4.578;2023-02-22T12:44:38;101207.34;;;9.92;100.00
69153;BME280;56261;51.580;4.578;2023-02-22T12:47:05;101218.28;;;10.15;100.00
69153;BME280;56261;51.580;4.578;2023-02-22T12:49:37;101214.66;;;10.24;100.00
69153;BME280;56261;51.580;4.578;2023-02-22T12:52:54;101217.44;;;10.32;100.00
69153;BME280;56261;51.580;4.578;2023-02-22T13:03:25;101231.19;;;10.28;100.00
69153;BME280;56261;51.580;4.578;2023-02-22T13:06:03;101222.25;;;10.11;100.00
69153;BME280;56261;51.580;4.578;2023-02-22T13:12:18;101237.56;;;10.09;100.00
69153;BME280;56261;51.580;4.578;2023-02-22T13:14:36;101225.69;;;10.47;100.00
69153;BME280;56261;51.580;4.578;2023-02-22T13:25:17;101230.25;;;10.63;100.00
69153;BME280;56261;51.580;4.578;2023-02-22T13:27:52;101231.19;;;10.28;100.00
69153;BME280;56261;51.580;4.578;2023-02-22T13:30:38;101226.66;;;10.46;100.00
69153;BME280;56261;51.580;4.578;2023-02-22T13:36:36;101225.78;;;10.37;100.00
69153;BME280;56261;51.580;4.578;2023-02-22T13:39:24;101220.63;;;10.36;100.00
69153;BME280;56261;51.580;4.578;2023-02-22T13:42:19;101223.44;;;10.34;100.00
69153;BME280;56261;51.580;4.578;2023-02-22T13:50:57;101224.31;;;10.17;100.00
69153;BME280;56261;51.580;4.578;2023-02-22T13:53:31;101235.13;;;10.15;100.00
69153;BME280;56261;51.580;4.578;2023-02-22T13:56:01;101236.25;;;10.31;100.00
69153;BME280;56261;51.580;4.578;2023-02-22T13:58:26;101225.22;;;10.60;100.00
69153;BME280;56261;51.580;4.578;2023-02-22T14:00:57;101225.75;;;10.64;100.00
69153;BME280;56261;51.580;4.578;2023-02-22T14:03:38;101235.06;;;10.59;100.00
69153;BME280;56261;51.580;4.578;2023-02-22T14:08:51;101236.50;;;10.46;100.00
69153;BME280;56261;51.580;4.578;2023-02-22T14:12:01;101241.63;;;10.39;100.00
69153;BME280;56261;51.580;4.578;2023-02-22T14:16:31;101236.16;;;10.49;100.00
69153;BME280;56261;51.580;4.578;2023-02-22T14:19:10;101243.81;;;10.44;100.00
69153;BME280;56261;51.580;4.578;2023-02-22T14:21:57;101255.44;;;10.34;100.00
69153;BME280;56261;51.580;4.578;2023-02-22T14:24:29;101247.97;;;10.20;100.00
69153;BME280;56261;51.580;4.578;2023-02-22T14:27:07;101248.28;;;10.17;100.00
69153;BME280;56261;51.580;4.578;2023-02-22T14:29:33;101250.88;;;10.09;100.00
69153;BME280;56261;51.580;4.578;2023-02-22T14:32:02;101253.75;;;10.07;100.00
69153;BME280;56261;51.580;4.578;2023-02-22T14:34:48;101253.56;;;10.09;100.00
69153;BME280;56261;51.580;4.578;2023-02-22T14:37:17;101261.09;;;10.13;100.00
69153;BME280;56261;51.580;4.578;2023-02-22T14:39:47;101264.69;;;10.04;100.00
69153;BME280;56261;51.580;4.578;2023-02-22T14:42:30;101263.31;;;10.00;100.00
69153;BME280;56261;51.580;4.578;2023-02-22T14:45:24;101270.00;;;10.04;100.00
69153;BME280;56261;51.580;4.578;2023-02-22T14:47:59;101278.09;;;10.12;100.00
69153;BME280;56261;51.580;4.578;2023-02-22T14:55:56;101276.53;;;9.84;100.00